sensor_id;sensor_type;location;lat;lon;timestamp;P1;durP1;ratioP1;P2;durP2;ratioP2
29906;SDS011;16776;50.958;10.994;2023-02-28T00:00:07;1.20;;;1.10;;
29906;SDS011;16776;50.958;10.994;2023-02-28T00:02:36;0.95;;;0.93;;
29906;SDS011;16776;50.958;10.994;2023-02-28T00:05:03;1.20;;;1.10;;
29906;SDS011;16776;50.958;10.994;2023-02-28T00:07:31;1.23;;;1.13;;
29906;SDS011;16776;50.958;10.994;2023-02-28T00:09:58;1.25;;;1.08;;
29906;SDS011;16776;50.958;10.994;2023-02-28T00:12:27;1.15;;;1.05;;
29906;SDS011;16776;50.958;10.994;2023-02-28T00:14:53;1.50;;;1.27;;
29906;SDS011;16776;50.958;10.994;2023-02-28T00:17:20;1.08;;;0.98;;
29906;SDS011;16776;50.958;10.994;2023-02-28T00:19:47;1.27;;;1.10;;
29906;SDS011;16776;50.958;10.994;2023-02-28T00:22:14;1.92;;;1.35;;
29906;SDS011;16776;50.958;10.994;2023-02-28T00:24:41;1.38;;;1.27;;
29906;SDS011;16776;50.958;10.994;2023-02-28T00:27:07;1.17;;;1.08;;
29906;SDS011;16776;50.958;10.994;2023-02-28T00:29:35;1.40;;;1.00;;
29906;SDS011;16776;50.958;10.994;2023-02-28T00:32:03;1.65;;;1.25;;
29906;SDS011;16776;50.958;10.994;2023-02-28T00:34:30;1.50;;;1.23;;
29906;SDS011;16776;50.958;10.994;2023-02-28T00:37:02;1.63;;;1.08;;
29906;SDS011;16776;50.958;10.994;2023-02-28T00:39:29;1.10;;;1.10;;
29906;SDS011;16776;50.958;10.994;2023-02-28T00:41:56;2.60;;;1.05;;
29906;SDS011;16776;50.958;10.994;2023-02-28T00:44:22;2.25;;;1.20;;
29906;SDS011;16776;50.958;10.994;2023-02-28T00:46:50;2.10;;;1.55;;
29906;SDS011;16776;50.958;10.994;2023-02-28T00:49:19;1.10;;;0.90;;
29906;SDS011;16776;50.958;10.994;2023-02-28T00:51:46;1.10;;;1.00;;
29906;SDS011;16776;50.958;10.994;2023-02-28T00:54:12;1.60;;;1.10;;
29906;SDS011;16776;50.958;10.994;2023-02-28T00:56:39;2.03;;;1.60;;
29906;SDS011;16776;50.958;10.994;2023-02-28T00:59:06;1.50;;;1.40;;
29906;SDS011;16776;50.958;10.994;2023-02-28T01:01:32;1.42;;;1.20;;
29906;SDS011;16776;50.958;10.994;2023-02-28T01:04:00;2.38;;;1.40;;
29906;SDS011;16776;50.958;10.994;2023-02-28T01:06:27;1.30;;;1.20;;
29906;SDS011;16776;50.958;10.994;2023-02-28T01:08:53;2.03;;;1.10;;
29906;SDS011;16776;50.958;10.994;2023-02-28T01:11:20;2.28;;;1.40;;
29906;SDS011;16776;50.958;10.994;2023-02-28T01:13:46;2.67;;;1.50;;
29906;SDS011;16776;50.958;10.994;2023-02-28T01:16:13;1.60;;;1.10;;
29906;SDS011;16776;50.958;10.994;2023-02-28T01:18:40;1.20;;;1.10;;
29906;SDS011;16776;50.958;10.994;2023-02-28T01:21:09;2.72;;;1.13;;
29906;SDS011;16776;50.958;10.994;2023-02-28T01:23:38;1.67;;;1.17;;
29906;SDS011;16776;50.958;10.994;2023-02-28T01:26:05;1.05;;;0.95;;
29906;SDS011;16776;50.958;10.994;2023-02-28T01:28:32;1.15;;;1.08;;
29906;SDS011;16776;50.958;10.994;2023-02-28T01:30:59;1.33;;;1.10;;
29906;SDS011;16776;50.958;10.994;2023-02-28T01:33:26;1.70;;;1.10;;
29906;SDS011;16776;50.958;10.994;2023-02-28T01:35:57;1.58;;;1.10;;
29906;SDS011;16776;50.958;10.994;2023-02-28T01:38:25;1.55;;;1.30;;
29906;SDS011;16776;50.958;10.994;2023-02-28T01:40:52;2.10;;;1.42;;
29906;SDS011;16776;50.958;10.994;2023-02-28T01:43:21;1.65;;;1.23;;
29906;SDS011;16776;50.958;10.994;2023-02-28T01:45:50;1.33;;;1.23;;
29906;SDS011;16776;50.958;10.994;2023-02-28T01:48:16;1.15;;;1.00;;
29906;SDS011;16776;50.958;10.994;2023-02-28T01:50:45;2.58;;;1.42;;
29906;SDS011;16776;50.958;10.994;2023-02-28T01:53:14;2.10;;;1.30;;
29906;SDS011;16776;50.958;10.994;2023-02-28T01:55:47;1.67;;;1.30;;
29906;SDS011;16776;50.958;10.994;2023-02-28T01:58:16;1.92;;;1.70;;
29906;SDS011;16776;50.958;10.994;2023-02-28T02:00:42;1.60;;;1.00;;
29906;SDS011;16776;50.958;10.994;2023-02-28T02:03:10;1.05;;;0.95;;
29906;SDS011;16776;50.958;10.994;2023-02-28T02:05:39;2.33;;;1.48;;
29906;SDS011;16776;50.958;10.994;2023-02-28T02:08:08;1.00;;;0.98;;
29906;SDS011;16776;50.958;10.994;2023-02-28T02:10:39;1.27;;;1.20;;
29906;SDS011;16776;50.958;10.994;2023-02-28T02:13:14;1.77;;;1.23;;
29906;SDS011;16776;50.958;10.994;2023-02-28T02:15:54;1.20;;;1.10;;
29906;SDS011;16776;50.958;10.994;2023-02-28T02:18:30;0.82;;;0.82;;
29906;SDS011;16776;50.958;10.994;2023-02-28T02:27:06;1.27;;;1.17;;
29906;SDS011;16776;50.958;10.994;2023-02-28T02:35:47;1.27;;;1.10;;
29906;SDS011;16776;50.958;10.994;2023-02-28T02:38:23;1.63;;;1.30;;
29906;SDS011;16776;50.958;10.994;2023-02-28T02:41:02;1.45;;;1.13;;
29906;SDS011;16776;50.958;10.994;2023-02-28T02:43:35;1.52;;;1.08;;
29906;SDS011;16776;50.958;10.994;2023-02-28T02:46:06;1.83;;;1.30;;
29906;SDS011;16776;50.958;10.994;2023-02-28T02:48:37;1.20;;;1.10;;
29906;SDS011;16776;50.958;10.994;2023-02-28T02:51:09;1.38;;;1.27;;
29906;SDS011;16776;50.958;10.994;2023-02-28T02:53:42;1.23;;;1.13;;
29906;SDS011;16776;50.958;10.994;2023-02-28T02:56:15;1.33;;;1.23;;
29906;SDS011;16776;50.958;10.994;2023-02-28T02:58:44;1.30;;;1.20;;
29906;SDS011;16776;50.958;10.994;2023-02-28T03:01:16;1.33;;;1.13;;
29906;SDS011;16776;50.958;10.994;2023-02-28T03:03:53;1.38;;;1.13;;
29906;SDS011;16776;50.958;10.994;2023-02-28T03:06:23;1.45;;;1.27;;
29906;SDS011;16776;50.958;10.994;2023-02-28T03:08:50;2.65;;;1.25;;
29906;SDS011;16776;50.958;10.994;2023-02-28T03:11:17;1.83;;;1.20;;
29906;SDS011;16776;50.958;10.994;2023-02-28T03:13:49;1.25;;;1.00;;
29906;SDS011;16776;50.958;10.994;2023-02-28T03:16:35;1.40;;;1.15;;
29906;SDS011;16776;50.958;10.994;2023-02-28T03:22:11;1.20;;;1.10;;
29906;SDS011;16776;50.958;10.994;2023-02-28T03:24:48;1.70;;;1.27;;
29906;SDS011;16776;50.958;10.994;2023-02-28T03:27:21;0.80;;;0.80;;
29906;SDS011;16776;50.958;10.994;2023-02-28T03:29:54;1.33;;;1.23;;
29906;SDS011;16776;50.958;10.994;2023-02-28T03:32:28;1.25;;;1.10;;
29906;SDS011;16776;50.958;10.994;2023-02-28T03:34:57;1.45;;;1.20;;
29906;SDS011;16776;50.958;10.994;2023-02-28T03:37:30;1.38;;;1.10;;
29906;SDS011;16776;50.958;10.994;2023-02-28T03:40:01;1.63;;;1.00;;
29906;SDS011;16776;50.958;10.994;2023-02-28T03:42:33;1.58;;;1.00;;
29906;SDS011;16776;50.958;10.994;2023-02-28T03:45:04;1.73;;;1.23;;
29906;SDS011;16776;50.958;10.994;2023-02-28T03:47:37;1.33;;;1.23;;
29906;SDS011;16776;50.958;10.994;2023-02-28T03:50:10;1.40;;;1.30;;
29906;SDS011;16776;50.958;10.994;2023-02-28T03:52:44;2.55;;;1.00;;
29906;SDS011;16776;50.958;10.994;2023-02-28T03:55:13;1.35;;;1.08;;
29906;SDS011;16776;50.958;10.994;2023-02-28T03:57:43;2.50;;;1.10;;
29906;SDS011;16776;50.958;10.994;2023-02-28T04:00:25;0.93;;;0.82;;
29906;SDS011;16776;50.958;10.994;2023-02-28T04:02:55;2.42;;;1.10;;
29906;SDS011;16776;50.958;10.994;2023-02-28T04:05:22;2.08;;;1.30;;
29906;SDS011;16776;50.958;10.994;2023-02-28T04:07:51;1.45;;;0.98;;
29906;SDS011;16776;50.958;10.994;2023-02-28T04:10:17;2.15;;;1.25;;
29906;SDS011;16776;50.958;10.994;2023-02-28T04:12:44;1.98;;;1.27;;
29906;SDS011;16776;50.958;10.994;2023-02-28T04:15:11;2.28;;;1.10;;
29906;SDS011;16776;50.958;10.994;2023-02-28T04:17:37;1.30;;;1.20;;
29906;SDS011;16776;50.958;10.994;2023-02-28T04:20:04;0.95;;;0.95;;
29906;SDS011;16776;50.958;10.994;2023-02-28T04:22:34;1.25;;;1.15;;
29906;SDS011;16776;50.958;10.994;2023-02-28T04:25:03;1.92;;;1.23;;
29906;SDS011;16776;50.958;10.994;2023-02-28T04:27:30;1.42;;;1.13;;
29906;SDS011;16776;50.958;10.994;2023-02-28T04:29:57;1.40;;;1.30;;
29906;SDS011;16776;50.958;10.994;2023-02-28T04:32:23;1.77;;;0.88;;
29906;SDS011;16776;50.958;10.994;2023-02-28T04:34:50;2.88;;;1.20;;
29906;SDS011;16776;50.958;10.994;2023-02-28T04:37:16;1.45;;;1.10;;
29906;SDS011;16776;50.958;10.994;2023-02-28T04:39:43;2.13;;;1.02;;
29906;SDS011;16776;50.958;10.994;2023-02-28T04:42:11;1.30;;;1.10;;
29906;SDS011;16776;50.958;10.994;2023-02-28T04:44:38;1.60;;;1.10;;
29906;SDS011;16776;50.958;10.994;2023-02-28T04:47:04;1.13;;;1.13;;
29906;SDS011;16776;50.958;10.994;2023-02-28T04:49:31;2.50;;;1.05;;
29906;SDS011;16776;50.958;10.994;2023-02-28T04:51:58;1.52;;;1.23;;
29906;SDS011;16776;50.958;10.994;2023-02-28T04:54:24;1.65;;;1.17;;
29906;SDS011;16776;50.958;10.994;2023-02-28T04:56:51;1.52;;;1.10;;
29906;SDS011;16776;50.958;10.994;2023-02-28T04:59:19;2.17;;;1.55;;
29906;SDS011;16776;50.958;10.994;2023-02-28T05:01:46;2.05;;;1.20;;
29906;SDS011;16776;50.958;10.994;2023-02-28T05:04:13;1.40;;;1.25;;
29906;SDS011;16776;50.958;10.994;2023-02-28T05:06:40;1.40;;;1.30;;
29906;SDS011;16776;50.958;10.994;2023-02-28T05:09:07;1.80;;;1.17;;
29906;SDS011;16776;50.958;10.994;2023-02-28T05:11:33;1.80;;;1.33;;
29906;SDS011;16776;50.958;10.994;2023-02-28T05:14:01;1.33;;;1.15;;
29906;SDS011;16776;50.958;10.994;2023-02-28T05:16:29;1.25;;;1.15;;
29906;SDS011;16776;50.958;10.994;2023-02-28T05:18:56;2.38;;;1.00;;
29906;SDS011;16776;50.958;10.994;2023-02-28T05:21:26;1.13;;;1.00;;
29906;SDS011;16776;50.958;10.994;2023-02-28T05:23:54;1.00;;;0.85;;
29906;SDS011;16776;50.958;10.994;2023-02-28T05:26:21;1.73;;;1.10;;
29906;SDS011;16776;50.958;10.994;2023-02-28T05:28:48;1.42;;;1.13;;
29906;SDS011;16776;50.958;10.994;2023-02-28T05:31:14;1.75;;;1.45;;
29906;SDS011;16776;50.958;10.994;2023-02-28T05:33:42;1.08;;;0.98;;
29906;SDS011;16776;50.958;10.994;2023-02-28T05:36:09;1.20;;;1.10;;
29906;SDS011;16776;50.958;10.994;2023-02-28T05:38:36;1.92;;;1.35;;
29906;SDS011;16776;50.958;10.994;2023-02-28T05:41:04;2.95;;;1.40;;
29906;SDS011;16776;50.958;10.994;2023-02-28T05:43:32;1.60;;;1.50;;
29906;SDS011;16776;50.958;10.994;2023-02-28T05:45:58;2.15;;;1.30;;
29906;SDS011;16776;50.958;10.994;2023-02-28T05:48:27;1.55;;;1.27;;
29906;SDS011;16776;50.958;10.994;2023-02-28T05:50:55;2.53;;;1.27;;
29906;SDS011;16776;50.958;10.994;2023-02-28T05:53:23;1.63;;;1.20;;
29906;SDS011;16776;50.958;10.994;2023-02-28T05:55:53;1.35;;;1.20;;
29906;SDS011;16776;50.958;10.994;2023-02-28T05:58:23;1.08;;;0.98;;
29906;SDS011;16776;50.958;10.994;2023-02-28T06:00:52;1.50;;;1.17;;
29906;SDS011;16776;50.958;10.994;2023-02-28T06:03:18;2.78;;;1.40;;
29906;SDS011;16776;50.958;10.994;2023-02-28T06:05:45;1.20;;;1.05;;
29906;SDS011;16776;50.958;10.994;2023-02-28T06:08:13;2.42;;;1.17;;
29906;SDS011;16776;50.958;10.994;2023-02-28T06:10:43;2.17;;;1.17;;
29906;SDS011;16776;50.958;10.994;2023-02-28T06:13:10;3.50;;;1.38;;
29906;SDS011;16776;50.958;10.994;2023-02-28T06:15:39;2.85;;;1.38;;
29906;SDS011;16776;50.958;10.994;2023-02-28T06:18:07;2.00;;;1.17;;
29906;SDS011;16776;50.958;10.994;2023-02-28T06:20:33;2.55;;;1.52;;
29906;SDS011;16776;50.958;10.994;2023-02-28T06:23:01;3.65;;;1.40;;
29906;SDS011;16776;50.958;10.994;2023-02-28T06:25:29;2.28;;;1.33;;
29906;SDS011;16776;50.958;10.994;2023-02-28T06:27:56;2.00;;;1.42;;
29906;SDS011;16776;50.958;10.994;2023-02-28T06:30:22;1.70;;;1.30;;
29906;SDS011;16776;50.958;10.994;2023-02-28T06:32:51;2.13;;;1.30;;
29906;SDS011;16776;50.958;10.994;2023-02-28T06:35:18;2.45;;;1.40;;
29906;SDS011;16776;50.958;10.994;2023-02-28T06:37:46;1.38;;;1.20;;
29906;SDS011;16776;50.958;10.994;2023-02-28T06:40:13;1.40;;;1.30;;
29906;SDS011;16776;50.958;10.994;2023-02-28T06:42:42;2.72;;;1.52;;
29906;SDS011;16776;50.958;10.994;2023-02-28T06:45:09;2.00;;;1.17;;
29906;SDS011;16776;50.958;10.994;2023-02-28T06:47:37;2.05;;;1.23;;
29906;SDS011;16776;50.958;10.994;2023-02-28T06:50:05;2.03;;;1.33;;
29906;SDS011;16776;50.958;10.994;2023-02-28T06:52:32;1.48;;;1.02;;
29906;SDS011;16776;50.958;10.994;2023-02-28T06:55:01;1.27;;;1.10;;
29906;SDS011;16776;50.958;10.994;2023-02-28T06:57:28;1.58;;;1.27;;
29906;SDS011;16776;50.958;10.994;2023-02-28T06:59:58;2.17;;;1.58;;
29906;SDS011;16776;50.958;10.994;2023-02-28T07:02:31;2.90;;;1.25;;
29906;SDS011;16776;50.958;10.994;2023-02-28T07:05:00;2.17;;;1.52;;
29906;SDS011;16776;50.958;10.994;2023-02-28T07:07:26;2.90;;;1.45;;
29906;SDS011;16776;50.958;10.994;2023-02-28T07:09:53;1.50;;;1.20;;
29906;SDS011;16776;50.958;10.994;2023-02-28T07:12:19;2.53;;;1.30;;
29906;SDS011;16776;50.958;10.994;2023-02-28T07:14:46;1.55;;;1.23;;
29906;SDS011;16776;50.958;10.994;2023-02-28T07:17:14;1.67;;;1.20;;
29906;SDS011;16776;50.958;10.994;2023-02-28T07:19:40;2.55;;;1.55;;
29906;SDS011;16776;50.958;10.994;2023-02-28T07:22:07;1.85;;;1.00;;
29906;SDS011;16776;50.958;10.994;2023-02-28T07:24:33;2.08;;;1.60;;
29906;SDS011;16776;50.958;10.994;2023-02-28T07:27:00;1.67;;;1.33;;
29906;SDS011;16776;50.958;10.994;2023-02-28T07:29:27;2.08;;;1.52;;
29906;SDS011;16776;50.958;10.994;2023-02-28T07:31:53;2.00;;;1.40;;
29906;SDS011;16776;50.958;10.994;2023-02-28T07:34:22;4.32;;;2.10;;
29906;SDS011;16776;50.958;10.994;2023-02-28T07:36:55;1.55;;;1.30;;
29906;SDS011;16776;50.958;10.994;2023-02-28T07:39:21;1.70;;;1.50;;
29906;SDS011;16776;50.958;10.994;2023-02-28T07:41:48;1.88;;;1.40;;
29906;SDS011;16776;50.958;10.994;2023-02-28T07:44:15;2.50;;;1.52;;
29906;SDS011;16776;50.958;10.994;2023-02-28T07:46:42;2.70;;;1.52;;
29906;SDS011;16776;50.958;10.994;2023-02-28T07:49:08;1.95;;;1.30;;
29906;SDS011;16776;50.958;10.994;2023-02-28T07:51:36;2.35;;;1.50;;
29906;SDS011;16776;50.958;10.994;2023-02-28T07:54:03;1.60;;;1.33;;
29906;SDS011;16776;50.958;10.994;2023-02-28T07:56:30;4.70;;;1.92;;
29906;SDS011;16776;50.958;10.994;2023-02-28T07:58:56;3.10;;;1.77;;
29906;SDS011;16776;50.958;10.994;2023-02-28T08:01:23;2.08;;;1.65;;
29906;SDS011;16776;50.958;10.994;2023-02-28T08:03:49;1.95;;;1.73;;
29906;SDS011;16776;50.958;10.994;2023-02-28T08:06:17;3.25;;;1.88;;
29906;SDS011;16776;50.958;10.994;2023-02-28T08:08:46;3.05;;;1.90;;
29906;SDS011;16776;50.958;10.994;2023-02-28T08:11:13;2.78;;;1.70;;
29906;SDS011;16776;50.958;10.994;2023-02-28T08:13:41;1.73;;;1.33;;
29906;SDS011;16776;50.958;10.994;2023-02-28T08:16:08;1.98;;;1.55;;
29906;SDS011;16776;50.958;10.994;2023-02-28T08:18:35;1.50;;;1.40;;
29906;SDS011;16776;50.958;10.994;2023-02-28T08:21:05;2.75;;;1.40;;
29906;SDS011;16776;50.958;10.994;2023-02-28T08:23:32;3.10;;;1.67;;
29906;SDS011;16776;50.958;10.994;2023-02-28T08:26:01;1.85;;;1.70;;
29906;SDS011;16776;50.958;10.994;2023-02-28T08:28:28;1.88;;;1.70;;
29906;SDS011;16776;50.958;10.994;2023-02-28T08:30:55;1.45;;;1.27;;
29906;SDS011;16776;50.958;10.994;2023-02-28T08:33:25;2.58;;;2.20;;
29906;SDS011;16776;50.958;10.994;2023-02-28T08:35:53;2.88;;;2.20;;
29906;SDS011;16776;50.958;10.994;2023-02-28T08:38:20;2.63;;;2.15;;
29906;SDS011;16776;50.958;10.994;2023-02-28T08:40:47;3.85;;;2.35;;
29906;SDS011;16776;50.958;10.994;2023-02-28T08:43:15;2.70;;;1.70;;
29906;SDS011;16776;50.958;10.994;2023-02-28T08:45:43;2.00;;;1.88;;
29906;SDS011;16776;50.958;10.994;2023-02-28T08:48:09;3.63;;;1.92;;
29906;SDS011;16776;50.958;10.994;2023-02-28T08:50:36;3.10;;;2.17;;
29906;SDS011;16776;50.958;10.994;2023-02-28T08:53:02;5.85;;;2.72;;
29906;SDS011;16776;50.958;10.994;2023-02-28T08:55:29;4.28;;;2.38;;
29906;SDS011;16776;50.958;10.994;2023-02-28T08:57:56;3.97;;;2.60;;
29906;SDS011;16776;50.958;10.994;2023-02-28T09:00:24;3.10;;;2.50;;
29906;SDS011;16776;50.958;10.994;2023-02-28T09:02:57;2.80;;;2.55;;
29906;SDS011;16776;50.958;10.994;2023-02-28T09:05:23;2.80;;;2.10;;
29906;SDS011;16776;50.958;10.994;2023-02-28T09:07:54;4.05;;;2.40;;
29906;SDS011;16776;50.958;10.994;2023-02-28T09:10:20;3.20;;;2.03;;
29906;SDS011;16776;50.958;10.994;2023-02-28T09:12:48;3.72;;;2.50;;
29906;SDS011;16776;50.958;10.994;2023-02-28T09:15:14;3.80;;;1.73;;
29906;SDS011;16776;50.958;10.994;2023-02-28T09:17:42;3.50;;;2.00;;
29906;SDS011;16776;50.958;10.994;2023-02-28T09:20:09;3.80;;;2.20;;
29906;SDS011;16776;50.958;10.994;2023-02-28T09:22:37;1.92;;;1.70;;
29906;SDS011;16776;50.958;10.994;2023-02-28T09:25:04;3.17;;;2.30;;
29906;SDS011;16776;50.958;10.994;2023-02-28T09:27:31;3.65;;;2.45;;
29906;SDS011;16776;50.958;10.994;2023-02-28T09:29:57;5.10;;;2.50;;
29906;SDS011;16776;50.958;10.994;2023-02-28T09:32:24;4.70;;;2.67;;
29906;SDS011;16776;50.958;10.994;2023-02-28T09:34:52;4.40;;;2.60;;
29906;SDS011;16776;50.958;10.994;2023-02-28T09:37:19;5.45;;;2.72;;
29906;SDS011;16776;50.958;10.994;2023-02-28T09:39:45;3.75;;;2.55;;
29906;SDS011;16776;50.958;10.994;2023-02-28T09:42:14;3.28;;;2.50;;
29906;SDS011;16776;50.958;10.994;2023-02-28T09:44:48;3.28;;;2.05;;
29906;SDS011;16776;50.958;10.994;2023-02-28T09:47:18;3.92;;;2.22;;
29906;SDS011;16776;50.958;10.994;2023-02-28T09:49:54;3.08;;;1.88;;
29906;SDS011;16776;50.958;10.994;2023-02-28T09:52:26;3.17;;;2.05;;
29906;SDS011;16776;50.958;10.994;2023-02-28T09:57:32;2.30;;;1.95;;
29906;SDS011;16776;50.958;10.994;2023-02-28T10:00:03;3.15;;;2.35;;
29906;SDS011;16776;50.958;10.994;2023-02-28T10:02:49;3.72;;;2.30;;
29906;SDS011;16776;50.958;10.994;2023-02-28T10:05:28;3.47;;;2.35;;
29906;SDS011;16776;50.958;10.994;2023-02-28T10:08:04;4.03;;;2.33;;
29906;SDS011;16776;50.958;10.994;2023-02-28T10:10:37;3.20;;;1.85;;
29906;SDS011;16776;50.958;10.994;2023-02-28T10:13:10;1.90;;;1.73;;
29906;SDS011;16776;50.958;10.994;2023-02-28T10:15:40;2.72;;;2.00;;
29906;SDS011;16776;50.958;10.994;2023-02-28T10:18:11;3.05;;;2.50;;
29906;SDS011;16776;50.958;10.994;2023-02-28T10:20:44;3.13;;;2.15;;
29906;SDS011;16776;50.958;10.994;2023-02-28T10:23:13;2.53;;;2.03;;
29906;SDS011;16776;50.958;10.994;2023-02-28T10:25:47;4.18;;;2.17;;
29906;SDS011;16776;50.958;10.994;2023-02-28T10:28:24;3.67;;;2.63;;
29906;SDS011;16776;50.958;10.994;2023-02-28T10:30:53;2.72;;;1.85;;
29906;SDS011;16776;50.958;10.994;2023-02-28T10:33:22;3.25;;;2.00;;
29906;SDS011;16776;50.958;10.994;2023-02-28T10:35:54;3.08;;;1.90;;
29906;SDS011;16776;50.958;10.994;2023-02-28T10:38:22;2.08;;;1.45;;
29906;SDS011;16776;50.958;10.994;2023-02-28T10:40:50;3.00;;;2.00;;
29906;SDS011;16776;50.958;10.994;2023-02-28T10:43:21;5.57;;;2.53;;
29906;SDS011;16776;50.958;10.994;2023-02-28T10:45:53;2.30;;;1.93;;
29906;SDS011;16776;50.958;10.994;2023-02-28T10:48:34;3.50;;;2.35;;
29906;SDS011;16776;50.958;10.994;2023-02-28T10:51:05;4.20;;;2.70;;
29906;SDS011;16776;50.958;10.994;2023-02-28T10:53:44;4.68;;;3.25;;
29906;SDS011;16776;50.958;10.994;2023-02-28T10:56:15;3.88;;;2.33;;
29906;SDS011;16776;50.958;10.994;2023-02-28T10:58:48;8.15;;;2.97;;
29906;SDS011;16776;50.958;10.994;2023-02-28T11:01:17;3.15;;;2.40;;
29906;SDS011;16776;50.958;10.994;2023-02-28T11:03:45;7.00;;;2.50;;
29906;SDS011;16776;50.958;10.994;2023-02-28T11:06:21;2.88;;;2.30;;
29906;SDS011;16776;50.958;10.994;2023-02-28T11:08:55;5.70;;;3.45;;
29906;SDS011;16776;50.958;10.994;2023-02-28T11:11:25;4.70;;;3.03;;
29906;SDS011;16776;50.958;10.994;2023-02-28T11:13:54;6.78;;;4.32;;
29906;SDS011;16776;50.958;10.994;2023-02-28T11:16:30;5.47;;;2.85;;
29906;SDS011;16776;50.958;10.994;2023-02-28T11:19:01;4.10;;;2.75;;
29906;SDS011;16776;50.958;10.994;2023-02-28T11:21:32;4.45;;;2.53;;
29906;SDS011;16776;50.958;10.994;2023-02-28T11:24:05;3.10;;;2.47;;
29906;SDS011;16776;50.958;10.994;2023-02-28T11:26:42;3.10;;;2.67;;
29906;SDS011;16776;50.958;10.994;2023-02-28T11:29:17;3.70;;;2.10;;
29906;SDS011;16776;50.958;10.994;2023-02-28T11:34:42;2.95;;;2.40;;
29906;SDS011;16776;50.958;10.994;2023-02-28T11:37:13;3.05;;;2.30;;
29906;SDS011;16776;50.958;10.994;2023-02-28T11:39:41;3.43;;;2.30;;
29906;SDS011;16776;50.958;10.994;2023-02-28T11:42:22;3.00;;;2.03;;
29906;SDS011;16776;50.958;10.994;2023-02-28T11:45:01;5.90;;;2.95;;
29906;SDS011;16776;50.958;10.994;2023-02-28T11:47:42;4.35;;;3.10;;
29906;SDS011;16776;50.958;10.994;2023-02-28T11:50:21;6.50;;;2.78;;
29906;SDS011;16776;50.958;10.994;2023-02-28T11:53:05;4.95;;;3.35;;
29906;SDS011;16776;50.958;10.994;2023-02-28T11:55:41;2.88;;;2.60;;
29906;SDS011;16776;50.958;10.994;2023-02-28T11:58:16;3.53;;;2.45;;
29906;SDS011;16776;50.958;10.994;2023-02-28T12:01:02;5.30;;;2.83;;
29906;SDS011;16776;50.958;10.994;2023-02-28T12:03:43;3.33;;;2.10;;
29906;SDS011;16776;50.958;10.994;2023-02-28T12:06:19;3.88;;;2.42;;
29906;SDS011;16776;50.958;10.994;2023-02-28T12:08:56;3.00;;;2.20;;
29906;SDS011;16776;50.958;10.994;2023-02-28T12:11:31;4.60;;;2.30;;
29906;SDS011;16776;50.958;10.994;2023-02-28T12:14:13;3.28;;;2.40;;
29906;SDS011;16776;50.958;10.994;2023-02-28T12:17:19;2.92;;;2.25;;
29906;SDS011;16776;50.958;10.994;2023-02-28T12:19:54;3.55;;;2.30;;
29906;SDS011;16776;50.958;10.994;2023-02-28T12:22:34;4.53;;;2.55;;
29906;SDS011;16776;50.958;10.994;2023-02-28T12:25:23;3.28;;;2.13;;
29906;SDS011;16776;50.958;10.994;2023-02-28T12:28:10;2.67;;;1.98;;
29906;SDS011;16776;50.958;10.994;2023-02-28T12:30:41;2.00;;;1.80;;
29906;SDS011;16776;50.958;10.994;2023-02-28T12:33:14;4.00;;;2.65;;
29906;SDS011;16776;50.958;10.994;2023-02-28T12:35:44;2.55;;;2.20;;
29906;SDS011;16776;50.958;10.994;2023-02-28T12:38:18;2.63;;;2.22;;
29906;SDS011;16776;50.958;10.994;2023-02-28T12:40:50;4.82;;;2.92;;
29906;SDS011;16776;50.958;10.994;2023-02-28T12:43:20;5.55;;;3.75;;
29906;SDS011;16776;50.958;10.994;2023-02-28T12:45:50;9.88;;;5.90;;
29906;SDS011;16776;50.958;10.994;2023-02-28T12:48:20;10.52;;;6.20;;
29906;SDS011;16776;50.958;10.994;2023-02-28T12:50:50;9.23;;;5.13;;
29906;SDS011;16776;50.958;10.994;2023-02-28T12:53:18;13.10;;;6.63;;
29906;SDS011;16776;50.958;10.994;2023-02-28T12:55:56;8.68;;;4.47;;
29906;SDS011;16776;50.958;10.994;2023-02-28T12:58:34;7.93;;;4.30;;
29906;SDS011;16776;50.958;10.994;2023-02-28T13:01:15;7.50;;;5.03;;
29906;SDS011;16776;50.958;10.994;2023-02-28T13:07:05;5.57;;;2.95;;
29906;SDS011;16776;50.958;10.994;2023-02-28T13:09:51;3.58;;;2.72;;
29906;SDS011;16776;50.958;10.994;2023-02-28T13:12:21;3.47;;;2.72;;
29906;SDS011;16776;50.958;10.994;2023-02-28T13:14:48;4.07;;;2.88;;
29906;SDS011;16776;50.958;10.994;2023-02-28T13:17:17;3.90;;;2.72;;
29906;SDS011;16776;50.958;10.994;2023-02-28T13:19:46;2.35;;;2.00;;
29906;SDS011;16776;50.958;10.994;2023-02-28T13:22:37;2.20;;;1.98;;
29906;SDS011;16776;50.958;10.994;2023-02-28T13:28:56;2.75;;;2.40;;
29906;SDS011;16776;50.958;10.994;2023-02-28T13:34:38;2.75;;;2.15;;
29906;SDS011;16776;50.958;10.994;2023-02-28T13:43:03;3.58;;;2.50;;
29906;SDS011;16776;50.958;10.994;2023-02-28T13:45:35;5.13;;;3.53;;
29906;SDS011;16776;50.958;10.994;2023-02-28T13:48:04;4.40;;;3.17;;
29906;SDS011;16776;50.958;10.994;2023-02-28T13:50:40;5.28;;;3.05;;
29906;SDS011;16776;50.958;10.994;2023-02-28T13:56:24;5.70;;;4.35;;
29906;SDS011;16776;50.958;10.994;2023-02-28T13:59:04;6.88;;;4.65;;
29906;SDS011;16776;50.958;10.994;2023-02-28T14:01:53;5.05;;;3.90;;
29906;SDS011;16776;50.958;10.994;2023-02-28T14:04:47;4.45;;;3.20;;
29906;SDS011;16776;50.958;10.994;2023-02-28T14:07:21;6.30;;;4.15;;
29906;SDS011;16776;50.958;10.994;2023-02-28T14:09:55;7.32;;;4.57;;
29906;SDS011;16776;50.958;10.994;2023-02-28T14:15:43;7.13;;;4.70;;
29906;SDS011;16776;50.958;10.994;2023-02-28T14:18:27;6.18;;;4.88;;
29906;SDS011;16776;50.958;10.994;2023-02-28T14:21:11;6.88;;;4.60;;
29906;SDS011;16776;50.958;10.994;2023-02-28T14:26:53;4.85;;;3.80;;
29906;SDS011;16776;50.958;10.994;2023-02-28T14:29:33;4.55;;;3.80;;
29906;SDS011;16776;50.958;10.994;2023-02-28T14:32:13;5.68;;;4.25;;
29906;SDS011;16776;50.958;10.994;2023-02-28T14:34:53;4.85;;;3.22;;
29906;SDS011;16776;50.958;10.994;2023-02-28T14:37:27;4.50;;;3.60;;
29906;SDS011;16776;50.958;10.994;2023-02-28T14:39:59;4.63;;;3.70;;
29906;SDS011;16776;50.958;10.994;2023-02-28T14:42:29;6.10;;;3.90;;
29906;SDS011;16776;50.958;10.994;2023-02-28T14:44:58;5.85;;;4.07;;
29906;SDS011;16776;50.958;10.994;2023-02-28T14:47:25;4.07;;;3.67;;
29906;SDS011;16776;50.958;10.994;2023-02-28T14:49:56;5.15;;;4.00;;
29906;SDS011;16776;50.958;10.994;2023-02-28T14:52:24;5.28;;;4.10;;
29906;SDS011;16776;50.958;10.994;2023-02-28T14:54:54;5.90;;;4.65;;
29906;SDS011;16776;50.958;10.994;2023-02-28T14:57:25;5.18;;;3.92;;
29906;SDS011;16776;50.958;10.994;2023-02-28T14:59:57;4.05;;;3.42;;
29906;SDS011;16776;50.958;10.994;2023-02-28T15:02:25;5.00;;;3.92;;
29906;SDS011;16776;50.958;10.994;2023-02-28T15:04:58;4.70;;;3.35;;
29906;SDS011;16776;50.958;10.994;2023-02-28T15:07:28;4.93;;;3.90;;
29906;SDS011;16776;50.958;10.994;2023-02-28T15:10:13;6.00;;;4.38;;
29906;SDS011;16776;50.958;10.994;2023-02-28T15:12:45;7.47;;;4.07;;
29906;SDS011;16776;50.958;10.994;2023-02-28T15:15:18;7.03;;;4.80;;
29906;SDS011;16776;50.958;10.994;2023-02-28T15:17:46;6.00;;;5.03;;
29906;SDS011;16776;50.958;10.994;2023-02-28T15:20:19;8.90;;;4.60;;
29906;SDS011;16776;50.958;10.994;2023-02-28T15:22:47;7.35;;;4.57;;
29906;SDS011;16776;50.958;10.994;2023-02-28T15:25:18;5.47;;;4.50;;
29906;SDS011;16776;50.958;10.994;2023-02-28T15:27:47;5.40;;;3.88;;
29906;SDS011;16776;50.958;10.994;2023-02-28T15:30:17;6.30;;;3.92;;
29906;SDS011;16776;50.958;10.994;2023-02-28T15:35:34;4.40;;;3.13;;
29906;SDS011;16776;50.958;10.994;2023-02-28T15:38:11;3.88;;;3.47;;
29906;SDS011;16776;50.958;10.994;2023-02-28T15:40:45;3.47;;;2.88;;